Time;durP1;ratioP1;P1;durP2;ratioP2;P2;SDS_P1;SDS_P2;PMS_P1;PMS_P2;Temp;Humidity;BMP_temperature;BMP_pressure;BME280_temperature;BME280_humidity;BME280_pressure;Samples;Min_cycle;Max_cycle;Signal;HPM_P1;HPM_P2
2021/10/22 00:00:44;;;;;;;5.47;1.67;;;;;;;18.07;37.23;101686.31;4900435;29;20395;-72
2021/10/22 00:03:11;;;;;;;5.30;1.80;;;;;;;18.26;36.92;101697.66;4900373;29;20025;-72
2021/10/22 00:05:36;;;;;;;7.10;1.95;;;;;;;18.35;37.03;101702.28;4899192;29;20108;-74
2021/10/22 00:08:02;;;;;;;5.00;2.05;;;;;;;18.48;36.59;101687.34;4900559;29;20116;-72
2021/10/22 00:10:28;;;;;;;8.07;1.90;;;;;;;17.84;38.46;101682.31;4900407;29;20033;-78
2021/10/22 00:12:53;;;;;;;7.72;2.03;;;;;;;17.92;38.23;101681.44;4900535;29;20437;-73
2021/10/22 00:15:19;;;;;;;7.28;1.98;;;;;;;18.08;38.11;101684.38;4900497;29;20029;-78
2021/10/22 00:17:45;;;;;;;5.85;1.48;;;;;;;17.85;38.53;101686.72;4900269;29;20036;-73
2021/10/22 00:20:11;;;;;;;2.97;1.42;;;;;;;17.90;38.38;101670.69;4900375;29;20067;-72
2021/10/22 00:22:38;;;;;;;9.77;2.50;;;;;;;18.18;37.97;101684.72;4900395;29;20035;-73
2021/10/22 00:25:05;;;;;;;5.53;2.00;;;;;;;18.08;38.04;101682.41;4900261;29;20062;-72
2021/10/22 00:27:30;;;;;;;3.03;1.73;;;;;;;18.27;37.69;101679.09;4900173;29;20396;-73
2021/10/22 00:29:58;;;;;;;6.57;2.45;;;;;;;18.24;37.67;101680.59;4900097;29;20036;-73
2021/10/22 00:32:24;;;;;;;7.60;2.20;;;;;;;18.17;37.81;101688.66;4900150;29;20024;-73
2021/10/22 00:34:50;;;;;;;10.65;3.35;;;;;;;18.28;37.56;101680.72;4900119;29;20035;-72
2021/10/22 00:37:15;;;;;;;4.35;1.35;;;;;;;17.90;38.33;101689.25;4900059;29;20390;-73
2021/10/22 00:39:41;;;;;;;5.95;1.70;;;;;;;18.13;37.84;101689.66;4900080;29;20036;-73
2021/10/22 00:42:08;;;;;;;4.10;2.00;;;;;;;18.34;37.34;101686.84;4900015;29;20031;-72
2021/10/22 00:44:34;;;;;;;9.35;2.40;;;;;;;18.28;37.48;101683.47;4899246;29;20136;-73
2021/10/22 00:46:59;;;;;;;3.60;2.10;;;;;;;18.30;37.62;101670.94;4899936;29;20515;-73
2021/10/22 00:49:26;;;;;;;4.25;1.88;;;;;;;18.11;38.18;101678.13;4898502;29;20039;-73
2021/10/22 00:51:52;;;;;;;7.97;1.73;;;;;;;17.83;38.78;101672.38;4899831;29;20031;-72
2021/10/22 00:54:18;;;;;;;5.82;2.22;;;;;;;17.78;38.98;101680.91;4899795;29;20037;-72
2021/10/22 00:56:47;;;;;;;5.28;2.60;;;;;;;17.89;38.77;101671.03;4899746;29;20032;-72
2021/10/22 00:59:12;;;;;;;5.03;2.67;;;;;;;18.31;38.06;101668.97;4899476;29;20104;-72
2021/10/22 01:01:39;;;;;;;5.22;2.08;;;;;;;17.86;39.25;101667.00;4899687;29;20029;-73
2021/10/22 01:04:06;;;;;;;4.15;1.60;;;;;;;18.13;38.69;101662.81;4899608;29;20024;-72
2021/10/22 01:06:36;;;;;;;8.27;1.83;;;;;;;18.12;38.71;101663.16;4899511;29;20029;-72
2021/10/22 01:09:04;;;;;;;7.38;1.83;;;;;;;18.11;38.95;101661.53;4899418;29;20040;-72
2021/10/22 01:11:30;;;;;;;6.30;2.00;;;;;;;18.38;38.34;101647.09;4899471;29;20461;-72
2021/10/22 01:13:56;;;;;;;5.93;2.30;;;;;;;18.35;38.46;101649.72;4899493;29;20053;-73
2021/10/22 01:16:22;;;;;;;4.32;1.92;;;;;;;18.41;38.20;101645.59;4899373;29;20060;-79
2021/10/22 01:18:47;;;;;;;6.07;2.30;;;;;;;18.24;38.73;101652.94;4899368;29;20033;-72
2021/10/22 01:21:13;;;;;;;4.45;1.50;;;;;;;17.99;39.22;101654.03;4899313;29;20028;-72
2021/10/22 01:23:39;;;;;;;4.45;1.45;;;;;;;18.02;39.37;101647.81;4899272;29;20028;-72
2021/10/22 01:26:05;;;;;;;3.53;1.50;;;;;;;18.21;39.13;101661.94;4899229;29;20029;-73
2021/10/22 01:28:30;;;;;;;7.35;2.00;;;;;;;18.00;39.67;101661.19;4899046;29;20395;-72
2021/10/22 01:30:56;;;;;;;5.47;2.22;;;;;;;18.16;39.30;101659.38;4897868;29;20076;-72
2021/10/22 01:33:23;;;;;;;6.00;2.30;;;;;;;18.26;39.18;101663.66;4899103;29;20488;-73
2021/10/22 01:35:50;;;;;;;5.95;1.70;;;;;;;18.06;39.55;101668.13;4898993;29;20028;-73
2021/10/22 01:38:20;;;;;;;4.55;1.90;;;;;;;18.23;39.39;101659.63;4898965;29;20077;-71
2021/10/22 01:40:46;;;;;;;3.63;1.40;;;;;;;18.16;39.63;101659.38;4898906;29;20636;-72
2021/10/22 01:43:12;;;;;;;4.32;1.40;;;;;;;18.39;38.90;101659.78;4898870;29;20029;-73
2021/10/22 01:45:38;;;;;;;4.30;1.48;;;;;;;18.18;39.25;101656.25;4898834;29;20024;-73
2021/10/22 01:48:04;;;;;;;4.38;1.50;;;;;;;17.90;40.02;101656.06;4898747;29;20029;-75
2021/10/22 01:50:31;;;;;;;6.35;1.70;;;;;;;17.95;39.67;101669.69;4898763;29;20044;-72
2021/10/22 01:52:57;;;;;;;4.97;1.45;;;;;;;18.41;38.83;101673.25;4898662;29;20448;-72
2021/10/22 01:55:24;;;;;;;6.22;1.60;;;;;;;18.24;38.88;101677.84;4897651;29;20039;-72
2021/10/22 01:57:49;;;;;;;5.20;1.60;;;;;;;18.66;38.08;101682.41;4898478;29;20036;-72
2021/10/22 02:00:15;;;;;;;5.90;1.40;;;;;;;18.47;38.56;101669.13;4898494;29;20040;-73
2021/10/22 02:02:40;;;;;;;3.70;1.70;;;;;;;18.60;38.10;101667.19;4898512;29;20039;-72
2021/10/22 02:05:07;;;;;;;7.03;2.28;;;;;;;18.36;38.60;101668.75;4898490;29;20395;-72
2021/10/22 02:07:32;;;;;;;6.30;1.67;;;;;;;18.14;38.96;101650.63;4898424;29;20558;-72
2021/10/22 02:09:58;;;;;;;5.00;1.60;;;;;;;18.33;38.79;101666.66;4898306;29;20091;-72
2021/10/22 02:12:24;;;;;;;3.85;1.73;;;;;;;18.56;38.18;101667.03;4898351;29;20039;-72
2021/10/22 02:14:49;;;;;;;7.68;3.60;;;;;;;18.38;38.82;101671.19;4898287;29;20036;-79
2021/10/22 02:17:15;;;;;;;7.03;2.03;;;;;;;18.32;39.10;101661.50;4898344;29;20033;-72
2021/10/22 02:19:40;;;;;;;5.30;2.00;;;;;;;18.53;38.70;101662.22;4896937;29;20084;-72
2021/10/22 02:22:06;;;;;;;6.93;2.70;;;;;;;18.71;38.25;101662.81;4896970;29;20475;-72
2021/10/22 02:24:32;;;;;;;7.68;1.45;;;;;;;18.54;38.67;101669.34;4898183;29;20115;-73
2021/10/22 02:26:58;;;;;;;5.07;1.67;;;;;;;18.64;38.66;101673.63;4898126;29;20063;-74
2021/10/22 02:29:24;;;;;;;5.35;1.90;;;;;;;18.92;38.07;101669.06;4896723;29;20036;-72
2021/10/22 02:31:49;;;;;;;5.38;2.50;;;;;;;18.88;38.27;101664.53;4898051;29;20036;-72
2021/10/22 02:34:16;;;;;;;6.70;1.80;;;;;;;18.76;38.80;101657.88;4896779;29;20056;-72
2021/10/22 02:36:41;;;;;;;7.75;3.28;;;;;;;18.76;38.75;101660.63;4897967;29;20100;-72
2021/10/22 02:39:07;;;;;;;5.72;1.55;;;;;;;18.78;38.79;101669.41;4897921;29;20488;-73
2021/10/22 02:41:33;;;;;;;5.80;1.90;;;;;;;18.77;38.71;101667.78;4897787;29;20033;-78
2021/10/22 02:43:58;;;;;;;3.17;1.58;;;;;;;19.00;38.39;101670.09;4897563;29;20033;-72
2021/10/22 02:46:24;;;;;;;7.05;1.80;;;;;;;18.92;38.59;101671.00;4895356;29;20111;-73
2021/10/22 02:48:50;;;;;;;6.85;1.70;;;;;;;18.89;38.69;101664.19;4897722;29;20056;-73
2021/10/22 02:51:16;;;;;;;6.32;1.73;;;;;;;19.10;38.35;101664.88;4897746;29;20024;-72
2021/10/22 02:53:42;;;;;;;4.13;1.48;;;;;;;18.75;39.25;101667.31;4897754;29;20033;-76
2021/10/22 02:56:07;;;;;;;5.70;1.60;;;;;;;18.90;39.18;101670.56;4897711;29;20032;-72
2021/10/22 02:58:33;;;;;;;7.78;1.80;;;;;;;18.97;38.89;101665.25;4897520;29;20514;-72
2021/10/22 03:00:59;;;;;;;4.45;1.35;;;;;;;19.06;38.80;101663.97;4897586;29;20115;-72
2021/10/22 03:03:24;;;;;;;3.15;1.13;;;;;;;19.07;38.92;101671.13;4897612;29;20025;-73
2021/10/22 03:05:50;;;;;;;4.93;1.60;;;;;;;19.11;39.10;101666.47;4897292;29;20020;-76
2021/10/22 03:08:16;;;;;;;7.10;1.38;;;;;;;19.04;39.32;101673.75;4897476;29;20111;-72
2021/10/22 03:10:41;;;;;;;4.47;1.23;;;;;;;19.05;39.60;101672.63;4897565;29;20072;-73
2021/10/22 03:13:07;;;;;;;7.32;2.42;;;;;;;19.33;39.03;101678.22;4897503;29;20032;-72
2021/10/22 03:15:33;;;;;;;4.65;1.35;;;;;;;19.48;38.64;101674.72;4897356;29;20035;-72
2021/10/22 03:17:58;;;;;;;3.70;1.40;;;;;;;19.28;39.46;101675.72;4897550;29;20040;-76
2021/10/22 03:20:25;;;;;;;4.60;1.08;;;;;;;19.22;39.78;101672.34;4897448;29;20512;-72
2021/10/22 03:22:50;;;;;;;4.45;1.25;;;;;;;18.88;40.97;101670.06;4897424;29;20092;-72
2021/10/22 03:25:16;;;;;;;3.92;1.20;;;;;;;19.11;40.55;101665.66;4897403;29;20036;-72
2021/10/22 03:27:42;;;;;;;2.72;1.10;;;;;;;19.32;40.08;101682.16;4897387;29;20035;-72
2021/10/22 03:30:10;;;;;;;3.22;0.98;;;;;;;19.23;40.64;101679.50;4897309;29;20032;-73
2021/10/22 03:32:35;;;;;;;5.28;1.05;;;;;;;19.06;41.34;101668.69;4897386;29;20116;-77
2021/10/22 03:35:02;;;;;;;3.92;1.02;;;;;;;19.35;40.76;101673.97;4897292;29;20487;-72
2021/10/22 03:37:28;;;;;;;4.05;1.50;;;;;;;19.48;40.53;101671.13;4897349;29;20515;-75
2021/10/22 03:39:54;;;;;;;4.80;2.03;;;;;;;19.58;40.46;101668.72;4897324;29;20029;-72
2021/10/22 03:42:19;;;;;;;4.45;1.20;;;;;;;19.52;40.61;101670.09;4896030;29;20078;-79
2021/10/22 03:44:45;;;;;;;5.03;1.40;;;;;;;19.53;40.62;101665.34;4897205;29;20078;-73
2021/10/22 03:47:12;;;;;;;6.10;1.83;;;;;;;19.02;42.41;101671.34;4895930;29;20048;-73
2021/10/22 03:49:38;;;;;;;4.38;1.10;;;;;;;19.38;41.42;101664.94;4897143;29;20032;-73
2021/10/22 03:52:04;;;;;;;4.78;1.20;;;;;;;19.59;41.01;101670.34;4895892;29;20029;-72
2021/10/22 03:54:30;;;;;;;6.07;1.13;;;;;;;19.55;41.21;101661.06;4896965;29;20048;-73
2021/10/22 03:56:55;;;;;;;3.30;1.88;;;;;;;19.48;41.27;101658.09;4897135;29;20040;-73
2021/10/22 03:59:21;;;;;;;5.65;1.20;;;;;;;19.21;42.01;101654.13;4896894;29;20052;-72
2021/10/22 04:01:47;;;;;;;1.85;1.15;;;;;;;19.68;41.02;101659.09;4897076;29;20085;-73
2021/10/22 04:04:13;;;;;;;2.85;1.35;;;;;;;19.68;41.03;101659.09;4895900;29;20032;-72
2021/10/22 04:06:39;;;;;;;7.03;1.85;;;;;;;19.69;40.86;101666.25;4897130;29;20036;-73
2021/10/22 04:09:05;;;;;;;6.82;1.65;;;;;;;19.79;40.69;101665.72;4897032;29;20041;-73
2021/10/22 04:11:31;;;;;;;6.28;2.10;;;;;;;19.80;40.94;101664.59;4897035;29;20407;-75
2021/10/22 04:13:56;;;;;;;2.92;1.13;;;;;;;19.89;40.55;101667.22;4897146;29;20039;-72
2021/10/22 04:16:23;;;;;;;7.10;1.88;;;;;;;19.82;40.89;101673.38;4895700;29;20111;-73
2021/10/22 04:18:48;;;;;;;3.63;1.02;;;;;;;19.92;40.77;101670.06;4898359;29;20033;-73
2021/10/22 04:21:14;;;;;;;4.57;1.33;;;;;;;19.97;40.48;101671.00;4900387;29;20043;-73
2021/10/22 04:23:42;;;;;;;5.18;1.80;;;;;;;20.04;40.49;101654.53;4917786;29;20120;-73
2021/10/22 04:26:08;;;;;;;6.30;1.40;;;;;;;20.08;40.35;101672.06;4919095;29;20028;-73
2021/10/22 04:28:34;;;;;;;4.82;1.38;;;;;;;20.05;40.54;101683.91;4919127;29;20494;-72
2021/10/22 04:30:59;;;;;;;4.05;1.42;;;;;;;20.12;40.25;101670.22;4918824;29;20034;-72
2021/10/22 04:33:25;;;;;;;4.43;1.35;;;;;;;20.20;40.17;101672.03;4919064;29;20064;-72
2021/10/22 04:35:51;;;;;;;5.00;1.50;;;;;;;20.26;40.07;101670.59;4919060;29;20039;-73
2021/10/22 04:40:45;;;;;;;9.48;1.48;;;;;;;20.12;40.29;101684.91;4919195;29;20103;-74
2021/10/22 04:43:16;;;;;;;3.88;1.13;;;;;;;19.94;40.72;101683.59;4918876;29;20127;-74
2021/10/22 04:45:46;;;;;;;6.10;1.10;;;;;;;20.08;40.60;101677.63;4917545;29;20067;-80
2021/10/22 04:48:13;;;;;;;1.80;0.93;;;;;;;20.14;40.12;101690.09;4918837;29;20032;-72
2021/10/22 04:50:46;;;;;;;3.53;1.38;;;;;;;19.88;40.92;101682.25;4918646;29;20032;-72
2021/10/22 04:53:12;;;;;;;3.33;1.00;;;;;;;19.92;40.66;101689.50;4918758;29;20032;-73
2021/10/22 04:55:38;;;;;;;2.90;1.20;;;;;;;19.84;40.95;101684.09;4918332;29;20039;-80
2021/10/22 04:58:08;;;;;;;3.35;1.42;;;;;;;19.92;40.69;101689.50;4917385;29;20124;-74
2021/10/22 05:00:33;;;;;;;6.05;1.02;;;;;;;19.84;40.77;101693.22;4917039;29;20076;-73
2021/10/22 05:02:59;;;;;;;3.20;1.00;;;;;;;19.92;40.61;101680.38;4918100;29;20036;-78
2021/10/22 05:05:25;;;;;;;3.53;1.10;;;;;;;19.97;40.44;101688.44;4917186;29;20047;-72
2021/10/22 05:07:51;;;;;;;1.95;0.77;;;;;;;19.73;41.04;101697.66;4918358;29;20115;-72
2021/10/22 05:10:16;;;;;;;3.53;0.90;;;;;;;20.04;40.25;101696.16;4918265;29;20032;-73
2021/10/22 05:12:42;;;;;;;4.35;1.02;;;;;;;19.88;40.60;101701.66;4918465;29;20407;-73
2021/10/22 05:15:09;;;;;;;4.18;1.10;;;;;;;19.90;40.54;101702.91;4918280;29;20059;-73
2021/10/22 05:17:35;;;;;;;7.65;2.00;;;;;;;19.86;40.60;101704.75;4918250;29;20368;-73
2021/10/22 05:20:04;;;;;;;3.58;1.83;;;;;;;19.84;40.80;101696.00;4918191;29;20039;-72
2021/10/22 05:22:30;;;;;;;4.55;1.58;;;;;;;19.83;40.95;101708.25;4918266;29;20032;-74
2021/10/22 05:24:56;;;;;;;2.45;1.02;;;;;;;19.85;40.83;101714.25;4918336;29;20102;-74
2021/10/22 05:27:22;;;;;;;1.55;0.80;;;;;;;19.32;42.16;101713.44;4916879;29;20507;-74
2021/10/22 05:29:48;;;;;;;0.93;0.73;;;;;;;19.69;41.36;101713.38;4917853;29;20032;-75
2021/10/22 05:32:13;;;;;;;2.17;0.75;;;;;;;19.60;41.60;101723.81;4918018;29;20036;-74
2021/10/22 05:34:39;;;;;;;3.60;1.45;;;;;;;19.35;42.37;101726.59;4917961;29;20028;-74
2021/10/22 05:37:04;;;;;;;4.40;1.02;;;;;;;19.67;41.50;101726.78;4917937;29;20115;-74
2021/10/22 05:39:30;;;;;;;1.90;0.70;;;;;;;19.87;40.93;101730.53;4918095;29;20475;-74
2021/10/22 05:41:56;;;;;;;3.47;0.65;;;;;;;19.74;41.27;101726.22;4917804;29;20499;-74
2021/10/22 05:44:23;;;;;;;6.20;1.20;;;;;;;19.90;40.95;101716.78;4917760;29;20467;-74
2021/10/22 05:46:52;;;;;;;3.38;1.10;;;;;;;19.60;41.79;101721.84;4916483;29;20503;-81
2021/10/22 05:49:21;;;;;;;1.60;0.70;;;;;;;19.55;41.80;101729.56;4916461;29;20032;-74
2021/10/22 05:51:47;;;;;;;6.40;1.42;;;;;;;19.62;41.58;101725.06;4917657;29;20099;-72
2021/10/22 05:54:13;;;;;;;2.17;0.88;;;;;;;19.41;41.90;101719.66;4916362;29;20023;-73
2021/10/22 05:56:39;;;;;;;2.30;0.70;;;;;;;19.17;42.83;101714.16;4917502;29;20539;-73
2021/10/22 05:59:04;;;;;;;3.90;1.00;;;;;;;19.31;42.37;101722.91;4912118;29;20054;-81
2021/10/22 06:01:30;;;;;;;3.63;0.75;;;;;;;19.60;41.94;101726.59;4915963;29;20044;-82
2021/10/22 06:03:56;;;;;;;1.75;0.93;;;;;;;19.48;41.97;101724.59;4907119;29;20032;-81
2021/10/22 06:06:22;;;;;;;4.60;1.38;;;;;;;19.45;42.01;101730.84;4907474;29;20096;-83
2021/10/22 06:08:47;;;;;;;3.70;0.77;;;;;;;19.30;42.69;101718.53;4908464;29;20032;-81
2021/10/22 06:11:13;;;;;;;2.05;0.80;;;;;;;19.35;42.70;101737.69;4906072;29;20063;-80
2021/10/22 06:13:40;;;;;;;3.65;0.90;;;;;;;19.28;42.78;101736.66;4907137;29;20052;-81
2021/10/22 06:16:07;;;;;;;4.03;0.90;;;;;;;19.39;42.70;101741.38;4908464;29;20527;-85
2021/10/22 06:18:34;;;;;;;3.20;0.93;;;;;;;19.61;42.06;101750.38;4905873;29;20115;-82
2021/10/22 06:21:10;;;;;;;2.20;0.95;;;;;;;19.68;42.22;101742.28;4906932;29;20051;-83
2021/10/22 06:23:56;;;;;;;1.33;0.77;;;;;;;19.97;41.48;101735.59;4902057;29;20028;-81
2021/10/22 06:26:26;;;;;;;4.47;0.95;;;;;;;19.82;41.80;101750.22;4905802;29;20110;-82
2021/10/22 06:28:53;;;;;;;3.28;0.82;;;;;;;19.68;42.21;101754.16;4905628;29;20095;-84
2021/10/22 06:31:20;;;;;;;3.30;1.10;;;;;;;19.93;41.54;101754.91;4906017;29;20029;-82
2021/10/22 06:33:46;;;;;;;4.05;0.90;;;;;;;20.06;41.37;101749.31;4907859;29;20039;-85
2021/10/22 06:36:12;;;;;;;3.85;1.10;;;;;;;20.09;41.07;101754.94;4901046;29;20580;-80
2021/10/22 06:38:38;;;;;;;1.70;0.82;;;;;;;20.10;41.25;101766.84;4898077;29;20029;-81
2021/10/22 06:41:07;;;;;;;4.25;1.40;;;;;;;19.90;42.02;101766.69;4896259;29;20032;-83
2021/10/22 06:43:33;;;;;;;2.33;0.90;;;;;;;20.09;41.72;101754.94;4897983;29;20032;-82
2021/10/22 06:45:59;;;;;;;1.88;0.98;;;;;;;20.12;41.58;101757.03;4897936;29;20510;-82
2021/10/22 06:48:24;;;;;;;5.18;1.25;;;;;;;20.22;41.55;101756.50;4897998;29;20572;-83
2021/10/22 06:50:50;;;;;;;2.28;1.17;;;;;;;19.99;42.09;101762.97;4898034;29;20039;-85
2021/10/22 06:53:16;;;;;;;2.33;1.08;;;;;;;20.11;41.77;101760.97;4896684;29;20072;-85
2021/10/22 06:55:41;;;;;;;4.85;1.50;;;;;;;20.24;41.49;101758.94;4904819;29;20103;-81
2021/10/22 06:58:07;;;;;;;4.07;1.40;;;;;;;20.01;42.39;101758.69;4904175;29;20043;-80
2021/10/22 07:00:34;;;;;;;5.20;0.90;;;;;;;20.19;41.62;101764.75;4908302;29;20067;-83
2021/10/22 07:03:00;;;;;;;5.15;1.58;;;;;;;20.09;41.90;101768.00;4906099;29;20023;-80
2021/10/22 07:07:56;;;;;;;3.65;2.08;;;;;;;20.21;41.82;101770.75;4903532;29;20392;-81
2021/10/22 07:10:22;;;;;;;4.40;1.45;;;;;;;19.99;42.43;101765.75;4904797;29;20047;-83
2021/10/22 07:12:48;;;;;;;7.93;1.92;;;;;;;20.14;42.02;101768.56;4906621;29;20086;-80
2021/10/22 07:15:15;;;;;;;4.72;1.40;;;;;;;20.07;42.14;101775.88;4906571;29;20511;-82
2021/10/22 07:17:42;;;;;;;3.95;1.48;;;;;;;20.12;42.31;101779.22;4900597;29;20043;-81
2021/10/22 07:20:11;;;;;;;2.67;1.27;;;;;;;19.97;42.39;101788.31;4893594;29;20035;-80
2021/10/22 07:22:47;;;;;;;26.90;19.20;;;;;;;20.20;42.05;101786.59;4916519;29;20028;-79
2021/10/22 07:25:13;;;;;;;5.40;2.10;;;;;;;20.27;41.91;101788.75;4916150;29;20403;-80
2021/10/22 07:27:39;;;;;;;3.95;1.23;;;;;;;20.30;41.82;101788.03;4915177;29;20108;-79
2021/10/22 07:30:05;;;;;;;3.38;1.10;;;;;;;20.33;41.82;101786.53;4915445;29;20479;-82
2021/10/22 07:32:31;;;;;;;3.13;1.13;;;;;;;20.37;41.72;101777.16;4900288;29;20038;-81
2021/10/22 07:34:57;;;;;;;4.93;1.13;;;;;;;20.20;42.25;101785.78;4894715;29;20020;-80
2021/10/22 07:37:23;;;;;;;2.70;0.90;;;;;;;20.13;42.37;101796.69;4899548;29;20534;-80
2021/10/22 07:39:49;;;;;;;3.97;1.00;;;;;;;19.93;43.00;101801.25;4896987;29;20037;-80
2021/10/22 07:42:14;;;;;;;4.28;1.15;;;;;;;19.89;42.96;101792.03;4897591;29;20020;-80
2021/10/22 07:44:40;;;;;;;0.95;0.70;;;;;;;19.74;43.59;101792.75;4902069;29;20055;-79
2021/10/22 07:47:06;;;;;;;2.40;0.68;;;;;;;19.87;43.24;101795.13;4905119;29;20054;-80
2021/10/22 07:49:32;;;;;;;4.43;0.90;;;;;;;19.89;43.16;101794.78;4882000;29;20025;-80
2021/10/22 07:51:57;;;;;;;1.75;0.88;;;;;;;19.94;43.27;101797.31;4897346;29;20424;-80
2021/10/22 07:54:23;;;;;;;5.25;0.95;;;;;;;19.90;42.95;101788.88;4896593;29;20031;-81
2021/10/22 07:56:49;;;;;;;3.20;0.90;;;;;;;20.09;42.66;101785.47;4891358;29;20712;-81
2021/10/22 07:59:14;;;;;;;3.25;0.90;;;;;;;19.81;43.26;101790.19;4895231;29;20423;-83
2021/10/22 08:01:42;;;;;;;5.10;1.90;;;;;;;19.49;44.44;101808.56;4890978;29;20032;-81
2021/10/22 08:04:13;;;;;;;2.30;0.70;;;;;;;20.01;42.94;101803.06;4892883;29;20059;-80
2021/10/22 08:06:39;;;;;;;1.77;0.73;;;;;;;19.99;43.09;101796.25;4916407;29;20398;-80
2021/10/22 08:09:05;;;;;;;2.05;0.68;;;;;;;19.90;43.58;101801.94;4917448;29;20115;-79
2021/10/22 08:11:31;;;;;;;2.92;0.93;;;;;;;20.10;42.97;101812.06;4918156;29;20400;-80
2021/10/22 08:13:58;;;;;;;2.42;0.88;;;;;;;19.96;43.35;101811.66;4917757;29;20020;-79
2021/10/22 08:16:24;;;;;;;2.67;0.88;;;;;;;20.10;42.99;101806.53;4917493;29;20024;-79
2021/10/22 08:18:49;;;;;;;2.72;1.40;;;;;;;19.75;43.79;101820.13;4917700;29;20039;-78
2021/10/22 08:21:22;;;;;;;1.23;0.88;;;;;;;20.19;42.65;101814.69;4917946;29;20707;-79
2021/10/22 08:23:49;;;;;;;2.45;1.17;;;;;;;19.90;43.33;101824.94;4917958;29;20032;-79
2021/10/22 08:26:16;;;;;;;4.22;1.00;;;;;;;20.04;42.87;101840.41;4918544;29;20027;-79
2021/10/22 08:28:44;;;;;;;2.17;0.85;;;;;;;20.14;42.72;101839.91;4917711;29;20095;-80
2021/10/22 08:31:09;;;;;;;6.40;1.25;;;;;;;20.31;42.65;101850.72;4918995;29;20399;-80
2021/10/22 08:33:36;;;;;;;4.22;1.08;;;;;;;19.87;43.75;101842.28;4918292;29;20029;-79
2021/10/22 08:36:03;;;;;;;2.00;0.80;;;;;;;20.37;42.86;101852.09;4918903;29;20100;-77
2021/10/22 08:38:29;;;;;;;4.50;1.20;;;;;;;19.94;43.35;101850.00;4918897;29;20032;-76
2021/10/22 08:40:56;;;;;;;3.78;0.90;;;;;;;20.17;43.19;101853.06;4918760;29;20036;-77
2021/10/22 08:43:25;;;;;;;2.40;0.88;;;;;;;20.43;42.55;101850.69;4908320;29;20099;-76
2021/10/22 08:45:53;;;;;;;3.50;0.70;;;;;;;20.29;42.87;101853.03;4902692;29;20039;-81
2021/10/22 08:48:19;;;;;;;2.63;0.70;;;;;;;20.60;42.16;101852.38;4918583;29;20028;-81
2021/10/22 08:50:45;;;;;;;2.58;0.57;;;;;;;20.16;43.37;101868.09;4918098;29;20096;-76
2021/10/22 08:53:10;;;;;;;1.38;0.50;;;;;;;20.48;42.50;101875.47;4902813;29;20043;-76
2021/10/22 08:55:36;;;;;;;1.52;0.80;;;;;;;20.30;43.08;101876.84;4899696;29;20032;-76
2021/10/22 08:58:03;;;;;;;1.63;0.60;;;;;;;20.54;42.22;101873.22;4899727;29;20148;-76
2021/10/22 09:00:29;;;;;;;2.45;0.93;;;;;;;20.54;42.33;101880.72;4899398;29;20048;-77
2021/10/22 09:03:08;;;;;;;0.90;0.50;;;;;;;20.46;42.34;101886.09;4899611;29;20080;-75
2021/10/22 09:05:35;;;;;;;4.10;1.10;;;;;;;20.45;42.40;101889.22;4898995;29;20040;-76
2021/10/22 09:08:05;;;;;;;1.70;0.60;;;;;;;20.30;42.92;101887.97;4899531;29;20032;-77
2021/10/22 09:10:35;;;;;;;0.70;0.60;;;;;;;20.54;42.36;101889.06;4899422;29;20064;-78
2021/10/22 09:13:04;;;;;;;1.90;1.13;;;;;;;20.47;42.65;101890.47;4899442;29;20115;-77
2021/10/22 09:15:32;;;;;;;2.90;0.85;;;;;;;20.31;43.15;101900.66;4899311;29;20040;-77
2021/10/22 09:18:00;;;;;;;3.00;0.75;;;;;;;20.27;43.53;101901.75;4899008;29;20035;-76
2021/10/22 09:20:27;;;;;;;3.92;0.85;;;;;;;20.92;42.00;101907.97;4899406;29;20609;-76
2021/10/22 09:22:56;;;;;;;2.58;0.93;;;;;;;20.71;42.73;101908.22;4899199;29;20033;-76
2021/10/22 09:25:25;;;;;;;2.33;0.70;;;;;;;21.10;41.94;101909.28;4899181;29;20035;-77
2021/10/22 09:28:02;;;;;;;4.07;1.45;;;;;;;20.92;42.63;101905.19;4899494;29;20492;-77
2021/10/22 09:30:45;;;;;;;3.17;0.80;;;;;;;21.36;41.74;101900.44;4907139;29;20143;-78
2021/10/22 09:33:10;;;;;;;1.40;0.60;;;;;;;21.30;41.86;101901.88;4899201;29;20112;-76
2021/10/22 09:35:43;;;;;;;2.95;1.05;;;;;;;21.24;41.57;101901.31;4898852;29;20115;-76
2021/10/22 09:38:14;;;;;;;4.35;0.80;;;;;;;20.88;42.17;101910.69;4898954;29;20500;-75
2021/10/22 09:41:04;;;;;;;4.75;0.70;;;;;;;21.02;41.51;101905.50;4899042;29;20408;-77
2021/10/22 09:43:34;;;;;;;;;;;;;;;20.80;41.82;101916.41;4902215;29;20028;-75
2021/10/22 09:46:10;;;;;;;0.70;0.43;;;;;;;20.60;42.01;101919.00;4907056;29;20287;-74
2021/10/22 09:48:37;;;;;;;2.35;0.88;;;;;;;20.65;41.91;101915.19;4905846;29;20031;-74
2021/10/22 09:51:37;;;;;;;3.10;0.80;;;;;;;20.86;41.50;101929.69;4906127;29;20024;-74
2021/10/22 09:54:10;;;;;;;1.98;0.90;;;;;;;21.08;41.34;101933.81;4897309;29;20033;-75
2021/10/22 09:56:37;;;;;;;2.65;0.90;;;;;;;20.60;42.12;101927.34;4898701;29;20405;-75
2021/10/22 09:59:05;;;;;;;3.35;0.80;;;;;;;21.17;40.89;101937.28;4898373;29;20155;-77
2021/10/22 10:01:35;;;;;;;4.15;0.93;;;;;;;21.18;41.04;101933.31;4898413;29;20107;-75
2021/10/22 10:04:01;;;;;;;1.30;0.68;;;;;;;20.97;42.19;101939.09;4898498;29;20025;-75
2021/10/22 10:06:29;;;;;;;4.88;0.80;;;;;;;21.37;41.35;101934.63;4896586;29;20035;-74
2021/10/22 10:08:55;;;;;;;4.40;1.27;;;;;;;21.47;40.66;101939.66;4897753;29;20032;-75
2021/10/22 10:11:25;;;;;;;6.40;1.25;;;;;;;21.64;40.16;101944.06;4898320;29;20036;-74
2021/10/22 10:13:57;;;;;;;7.13;1.88;;;;;;;21.49;39.71;101959.56;4898142;29;20124;-74
2021/10/22 10:16:24;;;;;;;2.88;0.90;;;;;;;21.68;39.62;101947.72;4897632;29;20043;-76
2021/10/22 10:19:47;;;;;;;5.38;1.10;;;;;;;21.65;39.45;101949.25;4897834;29;20396;-75
2021/10/22 10:22:15;;;;;;;3.83;1.00;;;;;;;21.71;39.39;101955.34;4895715;29;20135;-75
2021/10/22 10:24:48;;;;;;;2.38;1.20;;;;;;;22.14;38.78;101944.13;4879868;29;20063;-75
2021/10/22 10:27:19;;;;;;;12.82;2.70;;;;;;;22.29;38.33;101942.47;4899537;29;20396;-77
2021/10/22 10:29:51;;;;;;;2.78;1.35;;;;;;;21.89;39.51;101948.25;4900333;29;20546;-75
2021/10/22 10:32:21;;;;;;;1.92;1.20;;;;;;;21.67;39.95;101965.56;4901080;29;20768;-76
2021/10/22 10:34:55;;;;;;;4.20;1.25;;;;;;;21.60;39.69;101972.56;4901689;29;20043;-76
2021/10/22 10:37:22;;;;;;;9.68;2.15;;;;;;;22.22;38.96;101966.50;4910343;29;20028;-75
2021/10/22 10:39:48;;;;;;;4.95;1.42;;;;;;;22.06;39.16;101964.53;4900891;29;20060;-76
2021/10/22 10:42:28;;;;;;;3.33;1.10;;;;;;;22.27;38.93;101960.66;4901317;29;20051;-76
2021/10/22 10:44:57;;;;;;;6.70;1.48;;;;;;;22.15;38.59;101965.22;4900208;29;20028;-76
2021/10/22 10:47:29;;;;;;;5.13;1.30;;;;;;;22.47;38.02;101969.88;4894867;29;20025;-76
2021/10/22 10:49:54;;;;;;;8.25;1.30;;;;;;;22.34;38.11;101972.78;4881164;29;20677;-76
2021/10/22 10:52:39;;;;;;;4.30;1.35;;;;;;;22.58;37.69;101980.06;4882265;29;20084;-76
2021/10/22 10:55:29;;;;;;;8.32;1.10;;;;;;;22.78;36.96;101983.69;4881215;29;20027;-76
2021/10/22 10:58:06;;;;;;;5.75;1.15;;;;;;;22.53;37.34;101997.09;4899349;29;20042;-75
2021/10/22 11:00:41;;;;;;;6.72;1.20;;;;;;;22.62;37.38;102002.44;4898902;29;20049;-76
2021/10/22 11:03:19;;;;;;;6.18;2.00;;;;;;;22.60;37.43;102002.81;4907995;29;20039;-77
2021/10/22 11:05:46;;;;;;;3.42;1.13;;;;;;;22.45;37.46;102028.72;4906922;29;20020;-78
2021/10/22 11:08:18;;;;;;;4.90;0.90;;;;;;;22.96;36.33;102018.31;4905164;29;20056;-77
2021/10/22 11:11:20;;;;;;;5.00;1.65;;;;;;;22.78;36.92;102019.91;4906482;29;20028;-77
2021/10/22 11:13:50;;;;;;;6.95;1.23;;;;;;;23.16;36.17;102026.69;4935058;29;20051;-78
2021/10/22 11:16:21;;;;;;;5.85;1.55;;;;;;;22.96;36.12;102020.28;4904798;29;20032;-78
2021/10/22 11:19:20;;;;;;;6.55;1.55;;;;;;;22.94;36.15;102022.66;4899773;29;20092;-76
2021/10/22 11:21:49;;;;;;;2.78;0.70;;;;;;;22.58;36.61;102021.03;4896993;29;20067;-77
2021/10/22 11:24:25;;;;;;;2.70;0.77;;;;;;;22.77;35.88;102023.06;4897185;29;20029;-77
2021/10/22 11:27:12;;;;;;;7.85;2.25;;;;;;;22.81;36.03;102021.13;4897232;29;20029;-77
2021/10/22 11:29:46;;;;;;;4.30;1.05;;;;;;;22.93;35.89;102021.03;4899576;29;20520;-77
2021/10/22 11:32:17;;;;;;;8.40;1.52;;;;;;;22.86;36.09;102023.66;4901058;29;20032;-75